createdAt,value
2018-03-21T00:00:21.963Z,6.03
2018-03-21T00:02:50.229Z,7.03
2018-03-21T00:05:18.512Z,6.87
2018-03-21T00:07:46.778Z,6.77
2018-03-21T00:10:15.065Z,6.53
2018-03-21T00:12:43.347Z,5.87
2018-03-21T00:15:11.595Z,5.73
2018-03-21T00:17:39.899Z,7.23
2018-03-21T00:20:08.198Z,6.33
2018-03-21T00:22:36.679Z,6.10
2018-03-21T00:25:04.923Z,5.77
2018-03-21T00:27:33.219Z,6.70
2018-03-21T00:30:04.278Z,6.30
2018-03-21T00:32:32.652Z,5.80
2018-03-21T00:35:01.769Z,6.40
2018-03-21T00:37:31.175Z,6.40
2018-03-21T00:40:00.214Z,6.63
2018-03-21T00:42:29.470Z,7.20
2018-03-21T00:44:57.798Z,6.23
2018-03-21T00:47:26.202Z,6.53
2018-03-21T00:49:54.486Z,6.43
2018-03-21T00:52:22.746Z,6.67
2018-03-21T00:54:51.024Z,5.97
2018-03-21T00:57:19.318Z,6.07
2018-03-21T00:59:47.576Z,6.93
2018-03-21T01:02:15.870Z,5.93
2018-03-21T01:04:44.193Z,6.47
2018-03-21T01:07:13.225Z,6.30
2018-03-21T01:09:49.243Z,5.83
2018-03-21T01:12:17.560Z,5.90
2018-03-21T01:14:45.825Z,5.80
2018-03-21T01:17:14.310Z,6.10
2018-03-21T01:19:42.599Z,6.82
2018-03-21T01:22:10.834Z,6.00
2018-03-21T01:24:39.109Z,6.17
2018-03-21T01:27:08.028Z,6.80
2018-03-21T01:29:36.311Z,6.57
2018-03-21T01:32:08.382Z,5.90
2018-03-21T01:34:36.716Z,5.67
2018-03-21T01:37:05.740Z,5.87
2018-03-21T01:39:34.091Z,6.87
2018-03-21T01:42:02.384Z,5.47
2018-03-21T01:44:30.642Z,5.68
2018-03-21T01:46:58.963Z,6.57
2018-03-21T01:49:27.302Z,5.90
2018-03-21T01:51:55.572Z,6.83
2018-03-21T01:54:23.876Z,6.33
2018-03-21T01:56:52.182Z,6.50
2018-03-21T01:59:21.217Z,5.95
2018-03-21T02:01:49.490Z,5.73
2018-03-21T02:04:17.936Z,6.40
2018-03-21T02:06:46.973Z,5.73
2018-03-21T02:09:15.249Z,5.70
2018-03-21T02:11:45.441Z,6.03
2018-03-21T02:14:14.475Z,5.80
2018-03-21T02:16:42.752Z,6.17
2018-03-21T02:19:11.973Z,5.43
2018-03-21T02:21:40.269Z,5.53
2018-03-21T02:24:10.311Z,6.47
2018-03-21T02:26:38.590Z,6.23
2018-03-21T02:29:06.894Z,5.93
2018-03-21T02:31:35.207Z,6.43
2018-03-21T02:34:04.243Z,6.00
2018-03-21T02:36:32.663Z,6.00
2018-03-21T02:39:00.918Z,6.70
2018-03-21T02:41:29.198Z,6.10
2018-03-21T02:43:57.490Z,6.20
2018-03-21T02:46:25.709Z,6.20
2018-03-21T02:48:54.005Z,5.87
2018-03-21T02:51:22.291Z,5.73
2018-03-21T02:53:52.341Z,6.03
2018-03-21T02:56:21.742Z,5.90
2018-03-21T02:58:50.063Z,6.33
2018-03-21T03:01:18.309Z,5.60
2018-03-21T03:03:46.565Z,6.37
2018-03-21T03:06:14.851Z,4.80
2018-03-21T03:08:43.220Z,5.93
2018-03-21T03:11:11.475Z,5.67
2018-03-21T03:13:39.745Z,5.70
2018-03-21T03:16:08.002Z,6.22
2018-03-21T03:18:36.324Z,5.60
2018-03-21T03:21:08.283Z,6.37
2018-03-21T03:23:36.830Z,6.50
2018-03-21T03:26:05.082Z,6.33
2018-03-21T03:28:33.323Z,6.20
2018-03-21T03:31:02.378Z,5.77
2018-03-21T03:33:31.993Z,6.10
2018-03-21T03:36:00.255Z,4.57
2018-03-21T03:38:29.075Z,5.50
2018-03-21T03:40:57.379Z,5.30
2018-03-21T03:43:25.606Z,4.87
2018-03-21T03:45:53.993Z,6.07
2018-03-21T03:48:22.265Z,5.30
2018-03-21T03:50:50.506Z,6.40
2018-03-21T03:53:18.813Z,5.77
2018-03-21T03:55:47.080Z,5.17
2018-03-21T03:58:15.353Z,5.87
2018-03-21T04:00:44.817Z,5.30
2018-03-21T04:03:13.861Z,5.93
2018-03-21T04:05:42.145Z,5.97
2018-03-21T04:08:10.464Z,5.40
2018-03-21T04:10:39.559Z,5.07
2018-03-21T04:13:07.827Z,5.17
2018-03-21T04:15:36.878Z,6.27
2018-03-21T04:18:05.123Z,5.47
2018-03-21T04:20:33.390Z,5.37
2018-03-21T04:23:02.455Z,5.30
2018-03-21T04:25:30.804Z,6.17
2018-03-21T04:27:59.074Z,5.60
2018-03-21T04:30:28.288Z,6.13
2018-03-21T04:32:56.550Z,6.07
2018-03-21T04:35:24.795Z,6.30
2018-03-21T04:37:53.073Z,6.03
2018-03-21T04:40:21.362Z,5.60
2018-03-21T04:42:49.615Z,5.63
2018-03-21T04:45:18.698Z,5.93
2018-03-21T04:47:47.100Z,6.23
2018-03-21T04:50:15.374Z,6.83
2018-03-21T04:52:43.922Z,6.20
2018-03-21T04:55:13.032Z,6.37
2018-03-21T04:57:42.125Z,6.20
2018-03-21T05:00:11.530Z,5.28
2018-03-21T05:02:39.770Z,5.93
2018-03-21T05:05:09.092Z,5.50
2018-03-21T05:07:38.031Z,5.37
2018-03-21T05:10:06.331Z,5.77
2018-03-21T05:12:34.601Z,6.30
2018-03-21T05:15:02.847Z,5.37
2018-03-21T05:17:31.120Z,5.57
2018-03-21T05:19:59.441Z,5.70
2018-03-21T05:22:28.173Z,4.93
2018-03-21T05:24:58.069Z,5.53
2018-03-21T05:27:26.316Z,5.73
2018-03-21T05:29:55.341Z,5.47
2018-03-21T05:32:23.617Z,4.93
2018-03-21T05:34:52.010Z,4.97
2018-03-21T05:37:21.007Z,4.53
2018-03-21T05:39:50.014Z,4.40
2018-03-21T05:42:19.254Z,4.43
2018-03-21T05:44:47.555Z,4.72
2018-03-21T05:47:16.596Z,4.73
2018-03-21T05:49:44.894Z,4.80
2018-03-21T05:52:13.162Z,4.90
2018-03-21T05:54:41.448Z,5.10
2018-03-21T05:57:09.850Z,5.27
2018-03-21T05:59:39.122Z,4.93
2018-03-21T06:02:07.398Z,5.50
2018-03-21T06:04:35.666Z,4.72
2018-03-21T06:07:03.963Z,4.70
2018-03-21T06:09:32.334Z,4.70
2018-03-21T06:12:00.612Z,4.80
2018-03-21T06:14:29.016Z,4.37
2018-03-21T06:16:58.532Z,4.40
2018-03-21T06:19:26.848Z,5.80
2018-03-21T06:21:56.307Z,5.33
2018-03-21T06:24:25.328Z,5.93
2018-03-21T06:26:54.399Z,4.30
2018-03-21T06:29:23.398Z,4.17
2018-03-21T06:31:52.527Z,4.90
2018-03-21T06:34:20.805Z,5.20
2018-03-21T06:36:49.093Z,3.70
2018-03-21T06:39:18.593Z,4.23
2018-03-21T06:41:46.883Z,4.43
2018-03-21T06:44:15.167Z,3.77
2018-03-21T06:46:43.445Z,4.33
2018-03-21T06:49:11.663Z,3.73
2018-03-21T06:51:39.942Z,3.93
2018-03-21T06:54:09.021Z,4.07
2018-03-21T06:56:38.078Z,3.83
2018-03-21T06:59:06.350Z,3.27
2018-03-21T07:01:34.627Z,3.73
2018-03-21T07:04:02.993Z,3.70
2018-03-21T07:06:31.275Z,3.65
2018-03-21T07:08:59.522Z,4.90
2018-03-21T07:11:27.762Z,3.90
2018-03-21T07:14:07.907Z,4.10
2018-03-21T07:16:41.755Z,3.80
2018-03-21T07:19:10.047Z,4.30
2018-03-21T07:21:38.449Z,3.43
2018-03-21T07:24:06.709Z,3.87
2018-03-21T07:26:34.999Z,3.53
2018-03-21T07:29:03.283Z,3.63
2018-03-21T07:31:31.555Z,3.70
2018-03-21T07:33:59.889Z,4.07
2018-03-21T07:36:28.205Z,4.10
2018-03-21T07:38:56.454Z,3.37
2018-03-21T07:41:24.697Z,4.03
2018-03-21T07:43:53.729Z,3.73
2018-03-21T07:46:22.028Z,3.73
2018-03-21T07:48:50.950Z,3.90
2018-03-21T07:51:19.971Z,4.23
2018-03-21T07:53:49.594Z,3.83
2018-03-21T07:56:17.832Z,3.87
2018-03-21T07:58:47.758Z,4.23
2018-03-21T08:01:16.865Z,4.17
2018-03-21T08:03:45.872Z,4.23
2018-03-21T08:06:14.114Z,4.30
2018-03-21T08:08:43.150Z,4.70
2018-03-21T08:11:11.409Z,4.00
2018-03-21T08:13:39.662Z,4.60
2018-03-21T08:16:08.752Z,4.30
2018-03-21T08:18:38.504Z,3.87
2018-03-21T08:21:06.800Z,4.53
2018-03-21T08:23:35.074Z,4.60
2018-03-21T08:26:04.501Z,6.30
2018-03-21T08:28:32.753Z,6.40
2018-03-21T08:31:01.154Z,5.43
2018-03-21T08:33:29.372Z,4.57
2018-03-21T08:35:57.666Z,4.20
2018-03-21T08:38:25.982Z,5.07
2018-03-21T08:40:54.238Z,5.23
2018-03-21T08:43:22.490Z,4.87
2018-03-21T08:45:50.813Z,4.13
2018-03-21T08:48:19.912Z,4.70
2018-03-21T08:50:48.145Z,4.93
2018-03-21T08:53:17.293Z,5.07
2018-03-21T08:55:45.532Z,4.83
2018-03-21T08:58:13.811Z,4.10
2018-03-21T09:00:42.149Z,5.07
2018-03-21T09:03:11.166Z,5.03
2018-03-21T09:05:40.567Z,5.07
2018-03-21T09:08:08.823Z,3.97
2018-03-21T09:10:37.157Z,4.53
2018-03-21T09:13:05.465Z,4.70
2018-03-21T09:15:33.702Z,4.87
2018-03-21T09:18:01.946Z,5.60
2018-03-21T09:20:31.007Z,5.33
2018-03-21T09:22:59.295Z,5.23
2018-03-21T09:25:28.668Z,5.33
2018-03-21T09:27:57.708Z,5.65
2018-03-21T09:30:27.191Z,5.40
2018-03-21T09:32:55.456Z,4.90
2018-03-21T09:35:25.693Z,6.17
2018-03-21T09:37:55.982Z,5.47
2018-03-21T09:40:24.236Z,5.43
2018-03-21T09:42:52.481Z,5.07
2018-03-21T09:45:20.770Z,5.07
2018-03-21T09:47:51.412Z,5.47
2018-03-21T09:50:19.651Z,5.00
2018-03-21T09:52:47.949Z,4.87
2018-03-21T09:55:16.255Z,5.77
2018-03-21T09:57:44.518Z,5.03
2018-03-21T10:00:12.887Z,4.80
2018-03-21T10:02:41.196Z,5.73
2018-03-21T10:05:10.289Z,5.23
2018-03-21T10:07:39.443Z,5.63
2018-03-21T10:10:07.777Z,5.10
2018-03-21T10:12:36.940Z,7.73
2018-03-21T10:15:05.196Z,6.25
2018-03-21T10:17:33.576Z,6.80
2018-03-21T10:20:01.858Z,6.93
2018-03-21T10:22:30.118Z,6.60
2018-03-21T10:24:58.404Z,7.10
2018-03-21T10:27:26.670Z,7.47
2018-03-21T10:29:54.982Z,8.05
2018-03-21T10:32:23.304Z,8.50
2018-03-21T10:34:52.415Z,7.07
2018-03-21T10:37:21.621Z,7.83
2018-03-21T10:39:50.139Z,6.67
2018-03-21T10:42:18.409Z,8.37
2018-03-21T10:44:46.673Z,7.90
2018-03-21T10:47:14.969Z,7.70
2018-03-21T10:49:44.012Z,9.27
2018-03-21T10:52:12.661Z,8.13
2018-03-21T10:54:40.992Z,9.30
2018-03-21T10:57:09.223Z,8.15
2018-03-21T10:59:38.287Z,8.97
2018-03-21T11:02:12.236Z,9.10
2018-03-21T11:04:41.325Z,8.73
2018-03-21T11:07:10.348Z,8.75
2018-03-21T11:09:38.622Z,9.40
2018-03-21T11:12:06.905Z,8.33
2018-03-21T11:14:35.166Z,10.00
2018-03-21T11:17:03.482Z,10.37
2018-03-21T11:19:31.722Z,8.97
2018-03-21T11:21:59.963Z,9.43
2018-03-21T11:24:29.056Z,10.10
2018-03-21T11:26:57.294Z,9.73
2018-03-21T11:29:25.606Z,10.13
2018-03-21T11:31:54.780Z,9.80
2018-03-21T11:34:23.054Z,10.77
2018-03-21T11:36:52.267Z,10.77
2018-03-21T11:39:20.721Z,9.93
2018-03-21T11:41:49.002Z,8.20
2018-03-21T11:44:17.254Z,8.07
2018-03-21T11:46:45.592Z,5.07
2018-03-21T11:49:13.842Z,5.27
2018-03-21T11:51:42.186Z,5.40
2018-03-21T11:54:11.323Z,5.53
2018-03-21T11:56:39.588Z,5.53
2018-03-21T11:59:07.929Z,5.23
2018-03-21T12:01:36.210Z,6.03
2018-03-21T12:04:04.521Z,6.70
2018-03-21T12:06:32.901Z,6.17
2018-03-21T12:09:01.150Z,6.50
2018-03-21T12:11:29.397Z,6.93
2018-03-21T12:13:57.714Z,6.10
2018-03-21T12:16:25.973Z,5.80
2018-03-21T12:18:54.268Z,6.00
2018-03-21T12:21:22.576Z,5.10
2018-03-21T12:23:51.635Z,5.90
2018-03-21T12:26:22.292Z,6.43
2018-03-21T12:28:50.527Z,5.63
2018-03-21T12:31:18.823Z,5.40
2018-03-21T12:33:47.195Z,5.77
2018-03-21T12:36:15.474Z,5.90
2018-03-21T12:38:44.568Z,4.63
2018-03-21T12:41:12.858Z,5.70
2018-03-21T12:43:41.302Z,4.83
2018-03-21T12:46:09.669Z,5.20
2018-03-21T12:48:37.903Z,4.60
2018-03-21T12:51:06.200Z,3.97
2018-03-21T12:53:35.214Z,5.37
2018-03-21T12:56:03.501Z,3.73
2018-03-21T12:58:32.523Z,4.90
2018-03-21T13:01:01.962Z,4.20
2018-03-21T13:03:30.180Z,4.87
2018-03-21T13:05:58.474Z,6.23
2018-03-21T13:08:26.766Z,4.87
2018-03-21T13:10:55.073Z,4.10
2018-03-21T13:13:25.330Z,4.17
2018-03-21T13:15:53.646Z,4.20
2018-03-21T13:18:21.949Z,4.20
2018-03-21T13:20:50.714Z,4.30
2018-03-21T13:23:18.964Z,4.10
2018-03-21T13:25:47.363Z,5.03
2018-03-21T13:28:15.710Z,4.77
2018-03-21T13:30:43.966Z,4.10
2018-03-21T13:33:12.260Z,4.73
2018-03-21T13:35:43.413Z,4.90
2018-03-21T13:38:11.652Z,4.70
2018-03-21T13:40:39.947Z,4.10
2018-03-21T13:43:08.239Z,4.97
2018-03-21T13:45:36.551Z,4.77
2018-03-21T13:48:06.112Z,4.90
2018-03-21T13:50:34.440Z,5.97
2018-03-21T13:53:04.959Z,6.60
2018-03-21T13:55:34.094Z,7.17
2018-03-21T13:58:02.405Z,6.47
2018-03-21T14:00:30.800Z,6.97
2018-03-21T14:02:59.080Z,5.90
2018-03-21T14:05:27.488Z,7.07
2018-03-21T14:07:56.529Z,6.37
2018-03-21T14:10:24.938Z,5.50
2018-03-21T14:12:53.954Z,6.43
2018-03-21T14:15:23.085Z,6.57
2018-03-21T14:17:51.382Z,6.50
2018-03-21T14:20:19.729Z,6.53
2018-03-21T14:22:50.656Z,5.22
2018-03-21T14:25:19.683Z,6.50
2018-03-21T14:27:49.052Z,5.90
2018-03-21T14:30:18.071Z,6.57
2018-03-21T14:32:46.408Z,5.47
2018-03-21T14:35:14.779Z,6.53
2018-03-21T14:37:43.972Z,6.20
2018-03-21T14:40:12.994Z,7.10
2018-03-21T14:42:41.277Z,7.97
2018-03-21T14:45:09.754Z,6.83
2018-03-21T14:47:38.063Z,7.07
2018-03-21T14:50:06.850Z,5.77
2018-03-21T14:52:35.164Z,6.87
2018-03-21T14:55:04.206Z,5.30
2018-03-21T14:57:32.519Z,5.63
2018-03-21T15:00:00.908Z,6.60
2018-03-21T15:02:30.658Z,5.60
2018-03-21T15:04:58.922Z,5.00
2018-03-21T15:07:27.223Z,4.23
2018-03-21T15:09:55.534Z,5.07
2018-03-21T15:12:23.841Z,4.33
2018-03-21T15:14:52.963Z,5.33
2018-03-21T15:17:21.252Z,4.40
2018-03-21T15:19:50.914Z,4.30
2018-03-21T15:22:19.289Z,4.20
2018-03-21T15:24:49.200Z,4.27
2018-03-21T15:27:18.258Z,4.93
2018-03-21T15:29:46.627Z,5.47
2018-03-21T15:32:14.910Z,5.30
2018-03-21T15:34:44.218Z,5.60
2018-03-21T15:37:12.463Z,5.57
2018-03-21T15:39:40.836Z,4.33
2018-03-21T15:42:09.183Z,5.17
2018-03-21T15:44:38.227Z,4.93
2018-03-21T15:47:06.471Z,4.85
2018-03-21T15:49:34.755Z,4.57
2018-03-21T15:52:03.713Z,4.30
2018-03-21T15:54:31.963Z,4.33
2018-03-21T15:57:00.230Z,4.85
2018-03-21T15:59:28.544Z,5.60
2018-03-21T16:01:56.795Z,5.07
2018-03-21T16:04:25.087Z,4.73
2018-03-21T16:06:53.419Z,4.87
2018-03-21T16:09:21.813Z,4.10
2018-03-21T16:11:50.084Z,5.07
2018-03-21T16:14:18.378Z,4.10
2018-03-21T16:16:46.748Z,4.67
2018-03-21T16:19:15.031Z,4.40
2018-03-21T16:21:43.640Z,4.17
2018-03-21T16:24:11.889Z,4.83
2018-03-21T16:26:40.159Z,4.47
2018-03-21T16:29:08.521Z,4.80
2018-03-21T16:31:36.907Z,5.20
2018-03-21T16:34:05.159Z,4.53
2018-03-21T16:36:34.244Z,5.40
2018-03-21T16:39:02.563Z,3.72
2018-03-21T16:41:30.967Z,5.23
2018-03-21T16:44:00.075Z,4.53
2018-03-21T16:46:29.222Z,5.65
2018-03-21T16:48:57.519Z,4.40
2018-03-21T16:51:25.822Z,5.17
2018-03-21T16:53:54.882Z,5.53
2018-03-21T16:56:23.926Z,5.40
2018-03-21T16:58:53.059Z,5.53
2018-03-21T17:01:21.447Z,5.27
2018-03-21T17:03:49.751Z,4.87
2018-03-21T17:06:18.057Z,5.03
2018-03-21T17:08:47.100Z,5.70
2018-03-21T17:11:15.360Z,4.80
2018-03-21T17:13:44.574Z,4.93
2018-03-21T17:16:12.967Z,5.43
2018-03-21T17:18:41.687Z,4.80
2018-03-21T17:21:11.984Z,5.03
2018-03-21T17:23:40.270Z,5.83
2018-03-21T17:26:09.401Z,5.43
2018-03-21T17:28:37.669Z,5.27
2018-03-21T17:31:05.943Z,5.10
2018-03-21T17:33:34.296Z,5.93
2018-03-21T17:36:03.677Z,7.67
2018-03-21T17:38:31.995Z,6.17
2018-03-21T17:41:01.520Z,5.40
2018-03-21T17:43:29.818Z,6.00
2018-03-21T17:45:58.099Z,5.40
2018-03-21T17:48:26.512Z,6.63
2018-03-21T17:50:54.820Z,11.87
2018-03-21T17:53:23.129Z,7.00
2018-03-21T17:55:51.777Z,7.13
2018-03-21T17:58:20.816Z,5.40
2018-03-21T18:00:49.100Z,5.03
2018-03-21T18:03:18.744Z,4.77
2018-03-21T18:05:47.816Z,6.13
2018-03-21T18:08:17.196Z,6.10
2018-03-21T18:10:45.447Z,7.37
2018-03-21T18:13:13.758Z,5.70
2018-03-21T18:15:42.081Z,5.93
2018-03-21T18:18:10.345Z,6.50
2018-03-21T18:20:40.215Z,5.50
2018-03-21T18:23:08.491Z,5.67
2018-03-21T18:25:36.787Z,5.97
2018-03-21T18:28:05.064Z,6.47
2018-03-21T18:30:33.361Z,5.77
2018-03-21T18:33:03.043Z,6.10
2018-03-21T18:35:31.295Z,5.40
2018-03-21T18:37:59.712Z,5.97
2018-03-21T18:40:28.844Z,6.03
2018-03-21T18:42:57.253Z,6.23
2018-03-21T18:45:25.544Z,6.43
2018-03-21T18:47:53.805Z,6.13
2018-03-21T18:50:22.125Z,6.13
2018-03-21T18:52:50.390Z,6.10
2018-03-21T18:55:19.022Z,7.33
2018-03-21T18:57:47.336Z,7.33
2018-03-21T19:00:15.630Z,6.87
2018-03-21T19:02:43.919Z,6.97
2018-03-21T19:05:13.002Z,7.27
2018-03-21T19:07:42.094Z,7.30
2018-03-21T19:10:10.446Z,6.17
2018-03-21T19:12:38.722Z,6.87
2018-03-21T19:15:07.128Z,7.50
2018-03-21T19:17:35.444Z,7.17
2018-03-21T19:20:03.768Z,8.00
2018-03-21T19:22:32.729Z,7.17
2018-03-21T19:25:01.052Z,6.53
2018-03-21T19:27:29.397Z,6.18
2018-03-21T19:29:58.335Z,6.43
2018-03-21T19:32:27.499Z,7.77
2018-03-21T19:34:55.778Z,7.53
2018-03-21T19:37:24.074Z,7.55
2018-03-21T19:39:53.610Z,6.80
2018-03-21T19:42:21.896Z,7.63
2018-03-21T19:44:50.163Z,7.23
2018-03-21T19:47:18.461Z,6.87
2018-03-21T19:49:47.660Z,7.43
2018-03-21T19:52:15.958Z,7.37
2018-03-21T19:54:44.231Z,7.03
2018-03-21T19:57:12.538Z,7.27
2018-03-21T19:59:41.587Z,7.60
2018-03-21T20:02:09.876Z,7.00
2018-03-21T20:04:38.182Z,7.00
2018-03-21T20:07:07.310Z,7.53
2018-03-21T20:09:36.196Z,6.50
2018-03-21T20:12:05.361Z,8.10
2018-03-21T20:14:33.659Z,6.67
2018-03-21T20:17:02.877Z,7.70
2018-03-21T20:19:31.215Z,7.40
2018-03-21T20:22:00.630Z,7.10
2018-03-21T20:24:28.984Z,6.37
2018-03-21T20:26:58.037Z,6.67
2018-03-21T20:29:26.385Z,7.40
2018-03-21T20:31:56.415Z,7.00
2018-03-21T20:34:24.751Z,7.60
2018-03-21T20:36:53.107Z,7.40
2018-03-21T20:39:21.412Z,7.53
2018-03-21T20:41:49.718Z,6.83
2018-03-21T20:44:18.026Z,8.10
2018-03-21T20:46:46.350Z,7.40
2018-03-21T20:49:14.776Z,8.47
2018-03-21T20:51:43.118Z,7.97
2018-03-21T20:54:12.132Z,8.37
2018-03-21T20:56:40.485Z,8.03
2018-03-21T20:59:09.557Z,8.30
2018-03-21T21:01:40.189Z,8.80
2018-03-21T21:04:08.489Z,9.68
2018-03-21T21:06:37.533Z,9.07
2018-03-21T21:09:05.835Z,8.73
2018-03-21T21:11:34.115Z,8.07
2018-03-21T21:14:03.938Z,9.15
2018-03-21T21:16:33.699Z,8.33
2018-03-21T21:19:02.054Z,9.37
2018-03-21T21:21:31.136Z,8.17
2018-03-21T21:24:00.162Z,7.67
2018-03-21T21:26:28.464Z,7.93
2018-03-21T21:28:56.760Z,7.80
2018-03-21T21:31:25.056Z,9.33
2018-03-21T21:33:53.858Z,9.13
2018-03-21T21:36:23.382Z,8.30
2018-03-21T21:38:51.650Z,7.40
2018-03-21T21:41:19.970Z,7.07
2018-03-21T21:43:48.256Z,7.53
2018-03-21T21:46:18.059Z,7.70
2018-03-21T21:48:46.330Z,7.87
2018-03-21T21:51:16.031Z,7.15
2018-03-21T21:53:44.282Z,7.00
2018-03-21T21:56:12.592Z,7.00
2018-03-21T21:58:40.974Z,7.10
2018-03-21T22:01:09.306Z,5.97
2018-03-21T22:03:37.559Z,5.53
2018-03-21T22:06:06.637Z,5.93
2018-03-21T22:08:34.912Z,5.53
2018-03-21T22:11:03.249Z,6.10
2018-03-21T22:13:31.552Z,5.93
2018-03-21T22:15:59.851Z,6.93
2018-03-21T22:18:28.189Z,5.50
2018-03-21T22:20:56.418Z,6.20
2018-03-21T22:23:24.651Z,5.40
2018-03-21T22:25:55.377Z,5.30
2018-03-21T22:28:24.848Z,5.53
2018-03-21T22:30:53.099Z,5.33
2018-03-21T22:33:21.383Z,6.10
2018-03-21T22:35:49.648Z,5.23
2018-03-21T22:38:18.706Z,6.37
2018-03-21T22:40:47.001Z,5.50
2018-03-21T22:43:16.511Z,5.67
2018-03-21T22:45:44.749Z,5.03
2018-03-21T22:48:13.118Z,5.43
2018-03-21T22:50:41.329Z,5.70
2018-03-21T22:53:09.735Z,5.80
2018-03-21T22:55:38.753Z,6.03
2018-03-21T22:58:10.693Z,5.27
2018-03-21T23:00:39.708Z,6.60
2018-03-21T23:03:08.009Z,5.13
2018-03-21T23:05:36.315Z,6.40
2018-03-21T23:08:04.601Z,5.50
2018-03-21T23:10:33.660Z,5.90
2018-03-21T23:13:01.911Z,5.73
2018-03-21T23:15:30.168Z,6.12
2018-03-21T23:17:58.509Z,5.85
2018-03-21T23:20:26.774Z,5.23
2018-03-21T23:22:55.039Z,5.50
2018-03-21T23:25:23.436Z,6.23
2018-03-21T23:27:53.389Z,5.63
2018-03-21T23:30:21.648Z,5.97
2018-03-21T23:32:50.723Z,5.33
2018-03-21T23:35:18.966Z,6.18
2018-03-21T23:37:48.490Z,5.70
2018-03-21T23:40:16.849Z,6.53
2018-03-21T23:42:45.936Z,5.30
2018-03-21T23:45:14.226Z,5.10
2018-03-21T23:47:42.499Z,6.27
2018-03-21T23:50:10.772Z,5.60
2018-03-21T23:52:40.316Z,5.73
2018-03-21T23:55:08.624Z,5.33
2018-03-21T23:57:36.930Z,5.80
